sensor_id;sensor_type;location;lat;lon;timestamp;P1;durP1;ratioP1;P2;durP2;ratioP2
18114;SDS011;9184;54.390;18.620;2022-07-29T00:00:26;14.60;;;5.32;;
18114;SDS011;9184;54.390;18.620;2022-07-29T00:00:56;13.05;;;5.85;;
18114;SDS011;9184;54.390;18.620;2022-07-29T00:01:28;14.68;;;5.53;;
18114;SDS011;9184;54.390;18.620;2022-07-29T00:01:58;12.48;;;5.97;;
18114;SDS011;9184;54.390;18.620;2022-07-29T00:02:29;14.30;;;5.93;;
18114;SDS011;9184;54.390;18.620;2022-07-29T00:03:01;13.98;;;5.65;;
18114;SDS011;9184;54.390;18.620;2022-07-29T00:03:32;10.20;;;5.30;;
18114;SDS011;9184;54.390;18.620;2022-07-29T00:04:02;12.95;;;5.78;;
18114;SDS011;9184;54.390;18.620;2022-07-29T00:04:34;13.27;;;5.70;;
18114;SDS011;9184;54.390;18.620;2022-07-29T00:05:05;11.82;;;5.70;;
18114;SDS011;9184;54.390;18.620;2022-07-29T00:05:35;8.68;;;5.57;;
18114;SDS011;9184;54.390;18.620;2022-07-29T00:06:07;11.55;;;6.10;;
18114;SDS011;9184;54.390;18.620;2022-07-29T00:06:37;11.70;;;5.75;;
18114;SDS011;9184;54.390;18.620;2022-07-29T00:07:08;11.43;;;5.25;;
18114;SDS011;9184;54.390;18.620;2022-07-29T00:07:41;10.82;;;5.30;;
18114;SDS011;9184;54.390;18.620;2022-07-29T00:08:11;9.75;;;5.35;;
18114;SDS011;9184;54.390;18.620;2022-07-29T00:08:42;13.93;;;5.47;;
18114;SDS011;9184;54.390;18.620;2022-07-29T00:09:12;11.32;;;5.25;;
18114;SDS011;9184;54.390;18.620;2022-07-29T00:09:44;8.48;;;4.65;;
18114;SDS011;9184;54.390;18.620;2022-07-29T00:10:14;8.57;;;5.15;;
18114;SDS011;9184;54.390;18.620;2022-07-29T00:10:46;14.40;;;5.60;;
18114;SDS011;9184;54.390;18.620;2022-07-29T00:11:17;13.48;;;5.47;;
18114;SDS011;9184;54.390;18.620;2022-07-29T00:11:49;10.75;;;5.78;;
18114;SDS011;9184;54.390;18.620;2022-07-29T00:12:20;12.32;;;5.68;;
18114;SDS011;9184;54.390;18.620;2022-07-29T00:12:51;10.15;;;6.25;;
18114;SDS011;9184;54.390;18.620;2022-07-29T00:13:23;11.07;;;5.47;;
18114;SDS011;9184;54.390;18.620;2022-07-29T00:13:53;13.75;;;5.22;;
18114;SDS011;9184;54.390;18.620;2022-07-29T00:14:24;11.35;;;5.57;;
18114;SDS011;9184;54.390;18.620;2022-07-29T00:14:56;11.40;;;5.25;;
18114;SDS011;9184;54.390;18.620;2022-07-29T00:15:26;12.77;;;5.85;;
18114;SDS011;9184;54.390;18.620;2022-07-29T00:15:57;18.38;;;6.50;;
18114;SDS011;9184;54.390;18.620;2022-07-29T00:16:29;17.00;;;5.85;;
18114;SDS011;9184;54.390;18.620;2022-07-29T00:16:59;11.38;;;5.53;;
18114;SDS011;9184;54.390;18.620;2022-07-29T00:17:29;13.80;;;5.70;;
18114;SDS011;9184;54.390;18.620;2022-07-29T00:18:02;14.30;;;5.55;;
18114;SDS011;9184;54.390;18.620;2022-07-29T00:18:32;13.48;;;6.22;;
18114;SDS011;9184;54.390;18.620;2022-07-29T00:19:03;12.82;;;5.07;;
18114;SDS011;9184;54.390;18.620;2022-07-29T00:19:34;13.75;;;5.88;;
18114;SDS011;9184;54.390;18.620;2022-07-29T00:20:05;11.43;;;5.65;;
18114;SDS011;9184;54.390;18.620;2022-07-29T00:20:37;11.32;;;4.82;;
18114;SDS011;9184;54.390;18.620;2022-07-29T00:21:09;12.48;;;5.50;;
18114;SDS011;9184;54.390;18.620;2022-07-29T00:21:40;10.35;;;5.38;;
18114;SDS011;9184;54.390;18.620;2022-07-29T00:22:10;10.93;;;5.70;;
18114;SDS011;9184;54.390;18.620;2022-07-29T00:22:43;11.73;;;5.60;;
18114;SDS011;9184;54.390;18.620;2022-07-29T00:23:13;13.30;;;5.57;;
18114;SDS011;9184;54.390;18.620;2022-07-29T00:23:44;12.18;;;5.32;;
18114;SDS011;9184;54.390;18.620;2022-07-29T00:24:16;10.18;;;5.43;;
18114;SDS011;9184;54.390;18.620;2022-07-29T00:24:47;14.13;;;5.82;;
18114;SDS011;9184;54.390;18.620;2022-07-29T00:25:17;12.60;;;5.68;;
18114;SDS011;9184;54.390;18.620;2022-07-29T00:25:49;10.27;;;5.68;;
18114;SDS011;9184;54.390;18.620;2022-07-29T00:26:19;12.90;;;5.85;;
18114;SDS011;9184;54.390;18.620;2022-07-29T00:26:49;12.60;;;5.47;;
18114;SDS011;9184;54.390;18.620;2022-07-29T00:27:20;14.38;;;5.90;;
18114;SDS011;9184;54.390;18.620;2022-07-29T00:27:52;9.35;;;5.45;;
18114;SDS011;9184;54.390;18.620;2022-07-29T00:28:22;10.55;;;5.45;;
18114;SDS011;9184;54.390;18.620;2022-07-29T00:28:53;14.45;;;5.80;;
18114;SDS011;9184;54.390;18.620;2022-07-29T00:29:24;11.07;;;6.20;;
18114;SDS011;9184;54.390;18.620;2022-07-29T00:29:55;9.80;;;5.45;;
18114;SDS011;9184;54.390;18.620;2022-07-29T00:30:26;15.98;;;5.85;;
18114;SDS011;9184;54.390;18.620;2022-07-29T00:30:57;10.65;;;5.60;;
18114;SDS011;9184;54.390;18.620;2022-07-29T00:31:28;12.82;;;5.95;;
18114;SDS011;9184;54.390;18.620;2022-07-29T00:31:58;11.68;;;5.82;;
18114;SDS011;9184;54.390;18.620;2022-07-29T00:32:30;13.35;;;5.85;;
18114;SDS011;9184;54.390;18.620;2022-07-29T00:33:00;10.10;;;5.47;;
18114;SDS011;9184;54.390;18.620;2022-07-29T00:33:31;8.85;;;5.30;;
18114;SDS011;9184;54.390;18.620;2022-07-29T00:34:02;6.97;;;5.28;;
18114;SDS011;9184;54.390;18.620;2022-07-29T00:34:33;9.65;;;5.18;;
18114;SDS011;9184;54.390;18.620;2022-07-29T00:35:22;13.63;;;5.32;;
18114;SDS011;9184;54.390;18.620;2022-07-29T00:36:10;12.07;;;5.13;;
18114;SDS011;9184;54.390;18.620;2022-07-29T00:36:41;10.27;;;5.32;;
18114;SDS011;9184;54.390;18.620;2022-07-29T00:37:12;12.27;;;5.28;;
18114;SDS011;9184;54.390;18.620;2022-07-29T00:37:44;11.77;;;5.65;;
18114;SDS011;9184;54.390;18.620;2022-07-29T00:38:16;10.05;;;5.30;;
18114;SDS011;9184;54.390;18.620;2022-07-29T00:38:46;15.52;;;6.25;;
18114;SDS011;9184;54.390;18.620;2022-07-29T00:39:17;9.43;;;5.15;;
18114;SDS011;9184;54.390;18.620;2022-07-29T00:39:47;13.00;;;5.70;;
18114;SDS011;9184;54.390;18.620;2022-07-29T00:40:19;13.23;;;5.78;;
18114;SDS011;9184;54.390;18.620;2022-07-29T00:40:49;10.75;;;5.38;;
18114;SDS011;9184;54.390;18.620;2022-07-29T00:41:21;10.88;;;5.30;;
18114;SDS011;9184;54.390;18.620;2022-07-29T00:41:51;10.05;;;5.78;;
18114;SDS011;9184;54.390;18.620;2022-07-29T00:42:22;12.82;;;5.90;;
18114;SDS011;9184;54.390;18.620;2022-07-29T00:42:52;11.40;;;6.13;;
18114;SDS011;9184;54.390;18.620;2022-07-29T00:43:24;6.85;;;5.07;;
18114;SDS011;9184;54.390;18.620;2022-07-29T00:43:54;11.13;;;5.57;;
18114;SDS011;9184;54.390;18.620;2022-07-29T00:44:25;11.55;;;5.55;;
18114;SDS011;9184;54.390;18.620;2022-07-29T00:44:56;10.32;;;5.72;;
18114;SDS011;9184;54.390;18.620;2022-07-29T00:45:26;11.23;;;5.95;;
18114;SDS011;9184;54.390;18.620;2022-07-29T00:45:59;13.82;;;6.13;;
18114;SDS011;9184;54.390;18.620;2022-07-29T00:46:30;10.82;;;6.05;;
18114;SDS011;9184;54.390;18.620;2022-07-29T00:47:01;14.55;;;5.97;;
18114;SDS011;9184;54.390;18.620;2022-07-29T00:47:32;12.55;;;5.47;;
18114;SDS011;9184;54.390;18.620;2022-07-29T00:48:02;12.60;;;6.38;;
18114;SDS011;9184;54.390;18.620;2022-07-29T00:48:35;13.55;;;5.63;;
18114;SDS011;9184;54.390;18.620;2022-07-29T00:49:05;10.45;;;5.43;;
18114;SDS011;9184;54.390;18.620;2022-07-29T00:49:37;14.75;;;5.78;;
18114;SDS011;9184;54.390;18.620;2022-07-29T00:50:10;11.90;;;5.30;;
18114;SDS011;9184;54.390;18.620;2022-07-29T00:50:41;10.55;;;5.10;;
18114;SDS011;9184;54.390;18.620;2022-07-29T00:51:13;12.48;;;5.97;;
18114;SDS011;9184;54.390;18.620;2022-07-29T00:51:44;9.00;;;5.35;;
18114;SDS011;9184;54.390;18.620;2022-07-29T00:52:15;10.60;;;5.70;;
18114;SDS011;9184;54.390;18.620;2022-07-29T00:52:46;12.73;;;6.10;;
18114;SDS011;9184;54.390;18.620;2022-07-29T00:53:18;8.98;;;5.22;;
18114;SDS011;9184;54.390;18.620;2022-07-29T00:53:49;11.00;;;5.93;;
18114;SDS011;9184;54.390;18.620;2022-07-29T00:54:21;15.15;;;6.18;;
18114;SDS011;9184;54.390;18.620;2022-07-29T00:54:52;9.48;;;5.90;;
18114;SDS011;9184;54.390;18.620;2022-07-29T00:55:22;8.65;;;5.07;;
18114;SDS011;9184;54.390;18.620;2022-07-29T00:55:53;10.23;;;5.88;;
18114;SDS011;9184;54.390;18.620;2022-07-29T00:56:25;10.60;;;5.35;;
18114;SDS011;9184;54.390;18.620;2022-07-29T00:56:56;11.75;;;5.50;;
18114;SDS011;9184;54.390;18.620;2022-07-29T00:57:28;11.35;;;5.57;;
18114;SDS011;9184;54.390;18.620;2022-07-29T00:57:59;15.30;;;5.75;;
18114;SDS011;9184;54.390;18.620;2022-07-29T00:58:30;8.60;;;5.60;;
18114;SDS011;9184;54.390;18.620;2022-07-29T00:59:01;10.20;;;6.13;;
18114;SDS011;9184;54.390;18.620;2022-07-29T00:59:31;8.20;;;5.20;;
18114;SDS011;9184;54.390;18.620;2022-07-29T01:00:02;10.70;;;5.65;;
18114;SDS011;9184;54.390;18.620;2022-07-29T01:00:34;10.50;;;5.93;;
18114;SDS011;9184;54.390;18.620;2022-07-29T01:01:05;13.18;;;5.80;;
18114;SDS011;9184;54.390;18.620;2022-07-29T01:01:36;11.82;;;5.25;;
18114;SDS011;9184;54.390;18.620;2022-07-29T01:02:06;12.18;;;5.38;;
18114;SDS011;9184;54.390;18.620;2022-07-29T01:02:37;11.05;;;5.57;;
18114;SDS011;9184;54.390;18.620;2022-07-29T01:03:08;12.65;;;5.57;;
18114;SDS011;9184;54.390;18.620;2022-07-29T01:03:39;9.30;;;5.22;;
18114;SDS011;9184;54.390;18.620;2022-07-29T01:04:09;15.77;;;6.78;;
18114;SDS011;9184;54.390;18.620;2022-07-29T01:04:41;7.85;;;5.03;;
18114;SDS011;9184;54.390;18.620;2022-07-29T01:05:11;9.88;;;5.40;;
18114;SDS011;9184;54.390;18.620;2022-07-29T01:05:43;8.35;;;5.28;;
18114;SDS011;9184;54.390;18.620;2022-07-29T01:06:15;10.63;;;5.68;;
18114;SDS011;9184;54.390;18.620;2022-07-29T01:06:46;13.80;;;5.55;;
18114;SDS011;9184;54.390;18.620;2022-07-29T01:07:19;11.73;;;6.03;;
18114;SDS011;9184;54.390;18.620;2022-07-29T01:07:52;9.88;;;5.55;;
18114;SDS011;9184;54.390;18.620;2022-07-29T01:08:23;12.18;;;5.50;;
18114;SDS011;9184;54.390;18.620;2022-07-29T01:08:53;11.27;;;5.75;;
18114;SDS011;9184;54.390;18.620;2022-07-29T01:09:25;14.55;;;5.97;;
18114;SDS011;9184;54.390;18.620;2022-07-29T01:09:56;11.32;;;5.72;;
18114;SDS011;9184;54.390;18.620;2022-07-29T01:10:28;11.75;;;5.32;;
18114;SDS011;9184;54.390;18.620;2022-07-29T01:11:00;16.98;;;6.18;;
18114;SDS011;9184;54.390;18.620;2022-07-29T01:11:31;7.65;;;5.18;;
18114;SDS011;9184;54.390;18.620;2022-07-29T01:12:02;9.98;;;5.40;;
18114;SDS011;9184;54.390;18.620;2022-07-29T01:12:35;11.90;;;5.75;;
18114;SDS011;9184;54.390;18.620;2022-07-29T01:13:07;8.98;;;5.43;;
18114;SDS011;9184;54.390;18.620;2022-07-29T01:13:38;11.05;;;4.88;;
18114;SDS011;9184;54.390;18.620;2022-07-29T01:14:09;8.23;;;5.07;;
18114;SDS011;9184;54.390;18.620;2022-07-29T01:14:40;11.18;;;5.70;;
18114;SDS011;9184;54.390;18.620;2022-07-29T01:15:14;10.68;;;5.10;;
18114;SDS011;9184;54.390;18.620;2022-07-29T01:15:47;15.20;;;5.95;;
18114;SDS011;9184;54.390;18.620;2022-07-29T01:16:20;12.52;;;6.43;;
18114;SDS011;9184;54.390;18.620;2022-07-29T01:16:54;11.07;;;5.80;;
18114;SDS011;9184;54.390;18.620;2022-07-29T01:17:32;8.32;;;5.20;;
18114;SDS011;9184;54.390;18.620;2022-07-29T01:18:03;12.35;;;6.07;;
18114;SDS011;9184;54.390;18.620;2022-07-29T01:18:37;12.13;;;5.75;;
18114;SDS011;9184;54.390;18.620;2022-07-29T01:19:13;13.23;;;6.55;;
18114;SDS011;9184;54.390;18.620;2022-07-29T01:19:50;11.38;;;6.25;;
18114;SDS011;9184;54.390;18.620;2022-07-29T01:20:23;12.25;;;7.03;;
18114;SDS011;9184;54.390;18.620;2022-07-29T01:21:11;13.80;;;6.72;;
18114;SDS011;9184;54.390;18.620;2022-07-29T01:21:50;13.00;;;6.55;;
18114;SDS011;9184;54.390;18.620;2022-07-29T01:22:26;11.27;;;6.38;;
18114;SDS011;9184;54.390;18.620;2022-07-29T01:23:51;10.10;;;6.28;;
18114;SDS011;9184;54.390;18.620;2022-07-29T01:24:41;12.52;;;6.47;;
18114;SDS011;9184;54.390;18.620;2022-07-29T01:25:29;18.75;;;7.03;;
18114;SDS011;9184;54.390;18.620;2022-07-29T01:26:12;14.63;;;7.63;;
18114;SDS011;9184;54.390;18.620;2022-07-29T01:26:55;15.82;;;7.50;;
18114;SDS011;9184;54.390;18.620;2022-07-29T01:27:32;16.45;;;7.53;;
18114;SDS011;9184;54.390;18.620;2022-07-29T01:28:17;14.35;;;7.53;;
18114;SDS011;9184;54.390;18.620;2022-07-29T01:28:57;15.40;;;8.10;;
18114;SDS011;9184;54.390;18.620;2022-07-29T01:29:32;13.90;;;8.18;;
18114;SDS011;9184;54.390;18.620;2022-07-29T01:30:05;17.30;;;7.95;;
18114;SDS011;9184;54.390;18.620;2022-07-29T01:30:36;14.00;;;8.25;;
18114;SDS011;9184;54.390;18.620;2022-07-29T01:31:08;14.38;;;8.50;;
18114;SDS011;9184;54.390;18.620;2022-07-29T01:31:42;13.38;;;7.88;;
18114;SDS011;9184;54.390;18.620;2022-07-29T01:32:14;14.40;;;8.40;;
18114;SDS011;9184;54.390;18.620;2022-07-29T01:32:47;14.85;;;7.75;;
18114;SDS011;9184;54.390;18.620;2022-07-29T01:33:20;10.20;;;7.70;;
18114;SDS011;9184;54.390;18.620;2022-07-29T01:34:15;12.07;;;8.48;;
18114;SDS011;9184;54.390;18.620;2022-07-29T01:34:51;18.50;;;8.95;;
18114;SDS011;9184;54.390;18.620;2022-07-29T01:35:23;13.30;;;8.60;;
18114;SDS011;9184;54.390;18.620;2022-07-29T01:35:55;14.95;;;8.23;;
18114;SDS011;9184;54.390;18.620;2022-07-29T01:36:27;17.38;;;8.60;;
18114;SDS011;9184;54.390;18.620;2022-07-29T01:37:01;20.38;;;9.15;;
18114;SDS011;9184;54.390;18.620;2022-07-29T01:37:36;14.75;;;8.52;;
18114;SDS011;9184;54.390;18.620;2022-07-29T01:38:09;12.10;;;8.57;;
18114;SDS011;9184;54.390;18.620;2022-07-29T01:38:41;15.32;;;9.50;;
18114;SDS011;9184;54.390;18.620;2022-07-29T01:39:14;16.90;;;9.13;;
18114;SDS011;9184;54.390;18.620;2022-07-29T01:39:47;16.02;;;9.65;;
18114;SDS011;9184;54.390;18.620;2022-07-29T01:40:20;13.57;;;9.50;;
18114;SDS011;9184;54.390;18.620;2022-07-29T01:40:52;19.50;;;9.85;;
18114;SDS011;9184;54.390;18.620;2022-07-29T01:41:25;15.18;;;10.40;;
18114;SDS011;9184;54.390;18.620;2022-07-29T01:41:57;16.30;;;9.82;;
18114;SDS011;9184;54.390;18.620;2022-07-29T01:42:30;15.05;;;9.25;;
18114;SDS011;9184;54.390;18.620;2022-07-29T01:43:05;17.10;;;10.15;;
18114;SDS011;9184;54.390;18.620;2022-07-29T01:43:42;15.63;;;9.13;;
18114;SDS011;9184;54.390;18.620;2022-07-29T01:44:16;10.07;;;8.80;;
18114;SDS011;9184;54.390;18.620;2022-07-29T01:44:50;12.32;;;9.93;;
18114;SDS011;9184;54.390;18.620;2022-07-29T01:45:21;15.18;;;9.55;;
18114;SDS011;9184;54.390;18.620;2022-07-29T01:46:01;14.60;;;9.32;;
18114;SDS011;9184;54.390;18.620;2022-07-29T01:46:34;15.77;;;9.40;;
18114;SDS011;9184;54.390;18.620;2022-07-29T01:47:10;15.68;;;9.55;;
18114;SDS011;9184;54.390;18.620;2022-07-29T01:47:43;15.82;;;9.27;;
18114;SDS011;9184;54.390;18.620;2022-07-29T01:48:18;16.30;;;9.57;;
18114;SDS011;9184;54.390;18.620;2022-07-29T01:48:50;14.75;;;8.98;;
18114;SDS011;9184;54.390;18.620;2022-07-29T01:49:24;14.80;;;9.73;;
18114;SDS011;9184;54.390;18.620;2022-07-29T01:49:58;15.90;;;9.43;;
18114;SDS011;9184;54.390;18.620;2022-07-29T01:50:31;13.43;;;8.85;;
18114;SDS011;9184;54.390;18.620;2022-07-29T01:51:04;13.13;;;9.50;;
18114;SDS011;9184;54.390;18.620;2022-07-29T01:51:38;17.52;;;9.15;;
18114;SDS011;9184;54.390;18.620;2022-07-29T01:52:13;16.85;;;9.23;;
18114;SDS011;9184;54.390;18.620;2022-07-29T01:52:46;17.55;;;9.25;;
18114;SDS011;9184;54.390;18.620;2022-07-29T01:53:21;15.90;;;9.15;;
18114;SDS011;9184;54.390;18.620;2022-07-29T01:53:55;15.98;;;9.48;;
18114;SDS011;9184;54.390;18.620;2022-07-29T01:54:32;14.75;;;8.63;;
18114;SDS011;9184;54.390;18.620;2022-07-29T01:55:07;18.58;;;8.93;;
18114;SDS011;9184;54.390;18.620;2022-07-29T01:55:38;14.32;;;7.80;;
18114;SDS011;9184;54.390;18.620;2022-07-29T01:56:11;15.27;;;8.40;;
18114;SDS011;9184;54.390;18.620;2022-07-29T01:56:42;11.70;;;7.90;;
18114;SDS011;9184;54.390;18.620;2022-07-29T01:57:14;16.65;;;8.48;;
18114;SDS011;9184;54.390;18.620;2022-07-29T01:57:47;11.52;;;7.90;;
18114;SDS011;9184;54.390;18.620;2022-07-29T01:58:18;14.57;;;7.47;;
18114;SDS011;9184;54.390;18.620;2022-07-29T01:58:50;11.48;;;8.30;;
18114;SDS011;9184;54.390;18.620;2022-07-29T01:59:24;14.18;;;8.18;;
18114;SDS011;9184;54.390;18.620;2022-07-29T01:59:56;13.77;;;7.72;;
18114;SDS011;9184;54.390;18.620;2022-07-29T02:00:29;14.50;;;8.57;;
18114;SDS011;9184;54.390;18.620;2022-07-29T02:01:02;13.05;;;8.00;;
18114;SDS011;9184;54.390;18.620;2022-07-29T02:01:33;12.18;;;7.82;;
18114;SDS011;9184;54.390;18.620;2022-07-29T02:02:05;14.70;;;7.63;;
18114;SDS011;9184;54.390;18.620;2022-07-29T02:02:39;16.30;;;7.00;;
18114;SDS011;9184;54.390;18.620;2022-07-29T02:03:11;14.77;;;7.20;;
18114;SDS011;9184;54.390;18.620;2022-07-29T02:03:42;7.63;;;6.40;;
18114;SDS011;9184;54.390;18.620;2022-07-29T02:04:15;16.95;;;7.20;;
18114;SDS011;9184;54.390;18.620;2022-07-29T02:04:46;10.23;;;6.90;;
18114;SDS011;9184;54.390;18.620;2022-07-29T02:05:18;10.70;;;6.75;;
18114;SDS011;9184;54.390;18.620;2022-07-29T02:05:51;11.15;;;7.05;;
18114;SDS011;9184;54.390;18.620;2022-07-29T02:06:23;11.35;;;7.03;;
18114;SDS011;9184;54.390;18.620;2022-07-29T02:06:54;15.13;;;7.18;;
18114;SDS011;9184;54.390;18.620;2022-07-29T02:07:27;10.70;;;6.55;;
18114;SDS011;9184;54.390;18.620;2022-07-29T02:08:01;11.93;;;7.35;;
18114;SDS011;9184;54.390;18.620;2022-07-29T02:08:32;17.13;;;6.68;;
18114;SDS011;9184;54.390;18.620;2022-07-29T02:09:03;14.23;;;6.55;;
18114;SDS011;9184;54.390;18.620;2022-07-29T02:09:36;13.15;;;7.22;;
18114;SDS011;9184;54.390;18.620;2022-07-29T02:10:07;11.02;;;6.72;;
18114;SDS011;9184;54.390;18.620;2022-07-29T02:10:37;16.30;;;6.35;;
18114;SDS011;9184;54.390;18.620;2022-07-29T02:11:10;11.52;;;6.93;;
18114;SDS011;9184;54.390;18.620;2022-07-29T02:11:42;9.43;;;6.38;;
18114;SDS011;9184;54.390;18.620;2022-07-29T02:12:16;12.15;;;5.72;;
18114;SDS011;9184;54.390;18.620;2022-07-29T02:12:48;10.40;;;6.28;;
18114;SDS011;9184;54.390;18.620;2022-07-29T02:13:20;11.98;;;6.88;;
18114;SDS011;9184;54.390;18.620;2022-07-29T02:13:53;13.18;;;6.95;;
18114;SDS011;9184;54.390;18.620;2022-07-29T02:14:27;12.52;;;6.68;;
18114;SDS011;9184;54.390;18.620;2022-07-29T02:15:00;11.80;;;6.80;;
18114;SDS011;9184;54.390;18.620;2022-07-29T02:15:32;12.02;;;6.65;;
18114;SDS011;9184;54.390;18.620;2022-07-29T02:16:03;19.10;;;8.10;;
18114;SDS011;9184;54.390;18.620;2022-07-29T02:16:36;13.02;;;7.25;;
18114;SDS011;9184;54.390;18.620;2022-07-29T02:17:08;9.68;;;6.03;;
18114;SDS011;9184;54.390;18.620;2022-07-29T02:17:41;10.40;;;6.90;;
18114;SDS011;9184;54.390;18.620;2022-07-29T02:18:14;11.23;;;7.22;;
18114;SDS011;9184;54.390;18.620;2022-07-29T02:18:45;11.00;;;6.40;;
18114;SDS011;9184;54.390;18.620;2022-07-29T02:19:18;10.70;;;6.05;;
18114;SDS011;9184;54.390;18.620;2022-07-29T02:19:50;12.80;;;6.72;;
18114;SDS011;9184;54.390;18.620;2022-07-29T02:20:22;11.10;;;6.10;;
18114;SDS011;9184;54.390;18.620;2022-07-29T02:20:53;12.38;;;6.90;;
18114;SDS011;9184;54.390;18.620;2022-07-29T02:21:26;11.68;;;6.63;;
18114;SDS011;9184;54.390;18.620;2022-07-29T02:21:57;12.07;;;6.80;;
18114;SDS011;9184;54.390;18.620;2022-07-29T02:22:29;12.82;;;6.82;;
18114;SDS011;9184;54.390;18.620;2022-07-29T02:23:03;12.98;;;6.35;;
18114;SDS011;9184;54.390;18.620;2022-07-29T02:23:35;9.45;;;6.30;;
18114;SDS011;9184;54.390;18.620;2022-07-29T02:24:09;10.25;;;6.05;;
18114;SDS011;9184;54.390;18.620;2022-07-29T02:24:42;12.43;;;6.53;;
18114;SDS011;9184;54.390;18.620;2022-07-29T02:25:13;13.30;;;7.03;;
18114;SDS011;9184;54.390;18.620;2022-07-29T02:25:44;9.90;;;6.35;;
18114;SDS011;9184;54.390;18.620;2022-07-29T02:26:18;15.35;;;6.85;;
18114;SDS011;9184;54.390;18.620;2022-07-29T02:26:49;9.43;;;5.82;;
18114;SDS011;9184;54.390;18.620;2022-07-29T02:27:21;14.55;;;6.28;;
18114;SDS011;9184;54.390;18.620;2022-07-29T02:27:53;10.95;;;5.10;;
18114;SDS011;9184;54.390;18.620;2022-07-29T02:28:25;13.48;;;6.07;;
18114;SDS011;9184;54.390;18.620;2022-07-29T02:28:57;11.18;;;6.00;;
18114;SDS011;9184;54.390;18.620;2022-07-29T02:29:31;13.05;;;6.90;;
18114;SDS011;9184;54.390;18.620;2022-07-29T02:30:03;11.13;;;6.43;;
18114;SDS011;9184;54.390;18.620;2022-07-29T02:30:35;16.85;;;7.18;;
18114;SDS011;9184;54.390;18.620;2022-07-29T02:31:06;12.45;;;6.82;;
18114;SDS011;9184;54.390;18.620;2022-07-29T02:31:37;8.75;;;6.25;;
18114;SDS011;9184;54.390;18.620;2022-07-29T02:32:13;11.32;;;6.28;;
18114;SDS011;9184;54.390;18.620;2022-07-29T02:32:43;11.60;;;6.55;;
18114;SDS011;9184;54.390;18.620;2022-07-29T02:33:15;11.93;;;6.22;;
18114;SDS011;9184;54.390;18.620;2022-07-29T02:33:49;11.20;;;6.22;;
18114;SDS011;9184;54.390;18.620;2022-07-29T02:34:22;12.88;;;6.28;;
18114;SDS011;9184;54.390;18.620;2022-07-29T02:34:53;15.27;;;6.53;;
18114;SDS011;9184;54.390;18.620;2022-07-29T02:35:25;11.38;;;6.15;;
18114;SDS011;9184;54.390;18.620;2022-07-29T02:35:55;14.30;;;7.05;;
18114;SDS011;9184;54.390;18.620;2022-07-29T02:36:26;16.63;;;6.93;;
18114;SDS011;9184;54.390;18.620;2022-07-29T02:36:59;16.77;;;6.30;;
18114;SDS011;9184;54.390;18.620;2022-07-29T02:37:31;13.60;;;6.25;;
18114;SDS011;9184;54.390;18.620;2022-07-29T02:38:02;11.35;;;6.68;;
18114;SDS011;9184;54.390;18.620;2022-07-29T02:38:52;12.18;;;6.40;;
18114;SDS011;9184;54.390;18.620;2022-07-29T02:39:24;8.45;;;6.05;;
18114;SDS011;9184;54.390;18.620;2022-07-29T02:39:58;9.65;;;6.63;;
18114;SDS011;9184;54.390;18.620;2022-07-29T02:40:29;9.73;;;5.53;;
18114;SDS011;9184;54.390;18.620;2022-07-29T02:41:01;8.93;;;6.15;;
18114;SDS011;9184;54.390;18.620;2022-07-29T02:41:33;13.05;;;6.38;;
18114;SDS011;9184;54.390;18.620;2022-07-29T02:42:07;13.40;;;6.18;;
18114;SDS011;9184;54.390;18.620;2022-07-29T02:42:41;9.90;;;6.45;;
18114;SDS011;9184;54.390;18.620;2022-07-29T02:43:12;11.38;;;6.78;;
18114;SDS011;9184;54.390;18.620;2022-07-29T02:43:45;12.10;;;6.05;;
18114;SDS011;9184;54.390;18.620;2022-07-29T02:44:18;12.10;;;6.30;;
18114;SDS011;9184;54.390;18.620;2022-07-29T02:44:51;12.65;;;6.22;;
18114;SDS011;9184;54.390;18.620;2022-07-29T02:45:22;13.73;;;7.03;;
18114;SDS011;9184;54.390;18.620;2022-07-29T02:45:53;16.15;;;7.10;;
18114;SDS011;9184;54.390;18.620;2022-07-29T02:46:26;13.93;;;7.28;;
18114;SDS011;9184;54.390;18.620;2022-07-29T02:46:59;15.63;;;6.80;;
18114;SDS011;9184;54.390;18.620;2022-07-29T02:47:34;15.80;;;7.32;;
18114;SDS011;9184;54.390;18.620;2022-07-29T02:48:08;11.57;;;7.55;;
18114;SDS011;9184;54.390;18.620;2022-07-29T02:48:41;14.85;;;7.15;;
18114;SDS011;9184;54.390;18.620;2022-07-29T02:49:15;12.65;;;6.88;;
18114;SDS011;9184;54.390;18.620;2022-07-29T02:49:48;13.40;;;7.55;;
18114;SDS011;9184;54.390;18.620;2022-07-29T02:50:24;19.25;;;8.10;;
18114;SDS011;9184;54.390;18.620;2022-07-29T02:51:01;9.73;;;7.43;;
18114;SDS011;9184;54.390;18.620;2022-07-29T02:51:38;15.07;;;7.65;;
18114;SDS011;9184;54.390;18.620;2022-07-29T02:52:12;17.65;;;7.90;;
18114;SDS011;9184;54.390;18.620;2022-07-29T02:52:52;11.52;;;7.53;;
18114;SDS011;9184;54.390;18.620;2022-07-29T02:53:23;13.43;;;7.60;;
18114;SDS011;9184;54.390;18.620;2022-07-29T02:53:55;13.32;;;7.28;;
18114;SDS011;9184;54.390;18.620;2022-07-29T02:54:29;8.13;;;6.50;;
18114;SDS011;9184;54.390;18.620;2022-07-29T02:55:04;15.05;;;7.68;;
18114;SDS011;9184;54.390;18.620;2022-07-29T02:55:39;11.77;;;6.68;;
18114;SDS011;9184;54.390;18.620;2022-07-29T02:56:10;12.60;;;7.40;;
18114;SDS011;9184;54.390;18.620;2022-07-29T02:56:44;10.75;;;6.80;;
18114;SDS011;9184;54.390;18.620;2022-07-29T02:57:17;12.05;;;7.45;;
18114;SDS011;9184;54.390;18.620;2022-07-29T02:57:51;13.60;;;7.70;;
18114;SDS011;9184;54.390;18.620;2022-07-29T02:58:27;13.93;;;6.80;;
18114;SDS011;9184;54.390;18.620;2022-07-29T02:58:59;12.90;;;7.25;;
18114;SDS011;9184;54.390;18.620;2022-07-29T02:59:31;9.93;;;6.80;;
18114;SDS011;9184;54.390;18.620;2022-07-29T03:00:06;12.32;;;6.65;;
18114;SDS011;9184;54.390;18.620;2022-07-29T03:00:38;15.07;;;6.95;;
18114;SDS011;9184;54.390;18.620;2022-07-29T03:01:11;13.65;;;7.00;;
18114;SDS011;9184;54.390;18.620;2022-07-29T03:01:43;12.05;;;6.72;;
18114;SDS011;9184;54.390;18.620;2022-07-29T03:02:15;10.82;;;7.03;;
18114;SDS011;9184;54.390;18.620;2022-07-29T03:02:48;11.40;;;7.10;;
18114;SDS011;9184;54.390;18.620;2022-07-29T03:03:20;13.13;;;6.90;;
18114;SDS011;9184;54.390;18.620;2022-07-29T03:03:53;11.18;;;6.65;;
18114;SDS011;9184;54.390;18.620;2022-07-29T03:04:24;10.55;;;6.75;;
18114;SDS011;9184;54.390;18.620;2022-07-29T03:04:56;15.15;;;7.68;;
18114;SDS011;9184;54.390;18.620;2022-07-29T03:05:28;10.90;;;6.78;;
18114;SDS011;9184;54.390;18.620;2022-07-29T03:05:59;11.52;;;7.05;;
18114;SDS011;9184;54.390;18.620;2022-07-29T03:06:31;11.88;;;6.65;;
18114;SDS011;9184;54.390;18.620;2022-07-29T03:07:02;12.52;;;7.50;;
18114;SDS011;9184;54.390;18.620;2022-07-29T03:07:33;15.13;;;7.70;;
18114;SDS011;9184;54.390;18.620;2022-07-29T03:08:04;9.75;;;6.30;;
18114;SDS011;9184;54.390;18.620;2022-07-29T03:08:37;10.07;;;6.85;;
18114;SDS011;9184;54.390;18.620;2022-07-29T03:09:07;12.63;;;6.00;;
18114;SDS011;9184;54.390;18.620;2022-07-29T03:09:38;14.63;;;6.60;;
18114;SDS011;9184;54.390;18.620;2022-07-29T03:10:11;10.70;;;7.93;;
18114;SDS011;9184;54.390;18.620;2022-07-29T03:10:43;12.43;;;7.32;;
18114;SDS011;9184;54.390;18.620;2022-07-29T03:11:13;11.35;;;6.47;;
18114;SDS011;9184;54.390;18.620;2022-07-29T03:11:45;10.45;;;5.97;;
18114;SDS011;9184;54.390;18.620;2022-07-29T03:12:16;11.38;;;6.57;;
18114;SDS011;9184;54.390;18.620;2022-07-29T03:12:47;15.30;;;7.72;;
18114;SDS011;9184;54.390;18.620;2022-07-29T03:13:18;13.93;;;6.68;;
18114;SDS011;9184;54.390;18.620;2022-07-29T03:13:50;12.55;;;6.65;;
18114;SDS011;9184;54.390;18.620;2022-07-29T03:14:20;14.43;;;7.32;;
18114;SDS011;9184;54.390;18.620;2022-07-29T03:14:53;12.00;;;6.57;;